Time;durP1;ratioP1;P1;durP2;ratioP2;P2;SDS_P1;SDS_P2;PMS_P1;PMS_P2;Temp;Humidity;BMP_temperature;BMP_pressure;BME280_temperature;BME280_humidity;BME280_pressure;Samples;Min_cycle;Max_cycle;Signal;HPM_P1;HPM_P2
2022/06/23 00:01:53;;;;;;;20.73;10.73;;;;;;;;;;6276444;22;20078;-70
2022/06/23 00:04:20;;;;;;;18.80;10.52;;;;;;;;;;6277298;22;20004;-71
2022/06/23 00:06:51;;;;;;;22.38;11.65;;;;;;;;;;6278395;22;20030;-71
2022/06/23 00:09:35;;;;;;;22.50;12.38;;;;;;;;;;6278684;22;19996;-71
2022/06/23 00:12:02;;;;;;;21.95;11.38;;;;;;;;;;6278119;22;20012;-71
2022/06/23 00:14:28;;;;;;;21.67;11.20;;;;;;;;;;6278471;22;20006;-71
2022/06/23 00:16:53;;;;;;;20.83;10.82;;;;;;;;;;6278333;22;20058;-70
2022/06/23 00:19:18;;;;;;;23.48;11.52;;;;;;;;;;6278949;22;20054;-71
2022/06/23 00:21:47;;;;;;;20.65;10.95;;;;;;;;;;6278351;22;20008;-71
2022/06/23 00:24:15;;;;;;;23.13;11.07;;;;;;;;;;6278452;22;20002;-70
2022/06/23 00:26:41;;;;;;;25.02;12.55;;;;;;;;;;6278262;22;19996;-70
2022/06/23 00:29:10;;;;;;;23.98;11.73;;;;;;;;;;6278337;22;20042;-71
2022/06/23 00:31:37;;;;;;;25.70;11.48;;;;;;;;;;6276072;22;19992;-71
2022/06/23 00:34:13;;;;;;;24.05;11.65;;;;;;;;;;6277953;22;20050;-70
2022/06/23 00:36:47;;;;;;;19.25;11.55;;;;;;;;;;6277696;22;20007;-70
2022/06/23 00:39:18;;;;;;;24.00;11.05;;;;;;;;;;6277743;22;20031;-70
2022/06/23 00:41:44;;;;;;;18.05;10.70;;;;;;;;;;6277874;22;20026;-70
2022/06/23 00:44:19;;;;;;;22.80;11.57;;;;;;;;;;6278171;22;20366;-70
2022/06/23 00:46:47;;;;;;;23.05;11.65;;;;;;;;;;6278147;22;19999;-70
2022/06/23 00:49:18;;;;;;;24.25;11.65;;;;;;;;;;6277804;22;20085;-70
2022/06/23 00:51:50;;;;;;;30.05;12.48;;;;;;;;;;6277975;22;20110;-70
2022/06/23 00:54:19;;;;;;;26.67;10.95;;;;;;;;;;6278043;22;20007;-70
2022/06/23 00:56:50;;;;;;;24.92;11.82;;;;;;;;;;6278051;22;20079;-70
2022/06/23 00:59:54;;;;;;;23.48;11.20;;;;;;;;;;6277346;22;20000;-70
2022/06/23 01:02:23;;;;;;;27.90;11.68;;;;;;;;;;6153814;23;20037;-70
2022/06/23 01:04:56;;;;;;;23.13;11.18;;;;;;;;;;6153362;23;20089;-70
2022/06/23 01:07:21;;;;;;;22.67;10.83;;;;;;;;;;6220693;22;20011;-70
2022/06/23 01:09:51;;;;;;;19.58;11.13;;;;;;;;;;6277536;22;20018;-70
2022/06/23 01:12:21;;;;;;;20.02;10.85;;;;;;;;;;6277674;22;20012;-70
2022/06/23 01:14:50;;;;;;;27.42;11.55;;;;;;;;;;6277732;22;20328;-70
2022/06/23 01:17:15;;;;;;;19.90;11.98;;;;;;;;;;6277221;22;20539;-70
2022/06/23 01:19:43;;;;;;;22.65;11.75;;;;;;;;;;6277464;22;20007;-70
2022/06/23 01:22:17;;;;;;;24.77;12.30;;;;;;;;;;6277369;22;20439;-70
2022/06/23 01:24:48;;;;;;;24.52;11.50;;;;;;;;;;6277711;22;20499;-70
2022/06/23 01:27:16;;;;;;;24.63;11.57;;;;;;;;;;6277252;22;20004;-70
2022/06/23 01:29:41;;;;;;;23.20;11.80;;;;;;;;;;6277855;22;20067;-70
2022/06/23 01:32:13;;;;;;;25.58;11.48;;;;;;;;;;6277213;22;20401;-70
2022/06/23 01:34:38;;;;;;;21.40;11.32;;;;;;;;;;6277954;22;20008;-70
2022/06/23 01:37:11;;;;;;;25.70;11.35;;;;;;;;;;6277705;22;20408;-70
2022/06/23 01:39:54;;;;;;;25.02;11.07;;;;;;;;;;6277865;22;20022;-70
2022/06/23 01:42:28;;;;;;;25.00;11.23;;;;;;;;;;6277537;22;20004;-70
2022/06/23 01:44:58;;;;;;;24.35;12.70;;;;;;;;;;6277565;22;20006;-70
2022/06/23 01:47:24;;;;;;;27.92;13.70;;;;;;;;;;6277655;22;20003;-70
2022/06/23 01:49:52;;;;;;;25.25;12.25;;;;;;;;;;6277510;22;20577;-70
2022/06/23 01:52:19;;;;;;;20.35;11.10;;;;;;;;;;6277390;22;20018;-70
2022/06/23 01:54:46;;;;;;;22.38;12.07;;;;;;;;;;6277545;22;20075;-70
2022/06/23 01:57:20;;;;;;;27.42;12.73;;;;;;;;;;6277595;22;19992;-70
2022/06/23 01:59:53;;;;;;;21.85;12.07;;;;;;;;;;6277645;22;20458;-70
2022/06/23 02:02:18;;;;;;;26.95;12.45;;;;;;;;;;6277407;22;20007;-70
2022/06/23 02:04:46;;;;;;;28.17;12.75;;;;;;;;;;6277519;22;20000;-70
2022/06/23 02:07:18;;;;;;;24.23;11.25;;;;;;;;;;6276995;22;20437;-70
2022/06/23 02:09:52;;;;;;;27.80;12.35;;;;;;;;;;6277770;22;20010;-70
2022/06/23 02:12:24;;;;;;;23.02;11.40;;;;;;;;;;6277163;22;20375;-70
2022/06/23 02:14:49;;;;;;;23.38;10.63;;;;;;;;;;6277500;22;20011;-70
2022/06/23 02:17:33;;;;;;;23.13;11.63;;;;;;;;;;6277155;22;19995;-70
2022/06/23 02:20:02;;;;;;;28.30;11.98;;;;;;;;;;6277367;22;20004;-70
2022/06/23 02:22:31;;;;;;;23.48;11.80;;;;;;;;;;6276877;22;20499;-70
2022/06/23 02:24:56;;;;;;;23.40;12.13;;;;;;;;;;6277286;22;20002;-70
2022/06/23 02:27:42;;;;;;;30.38;12.20;;;;;;;;;;6249718;22;20039;-70
2022/06/23 02:30:14;;;;;;;25.17;11.32;;;;;;;;;;6275800;22;20011;-70
2022/06/23 02:32:52;;;;;;;28.55;11.60;;;;;;;;;;6277133;22;20011;-70
2022/06/23 02:35:23;;;;;;;25.95;11.00;;;;;;;;;;6277071;22;20019;-70
2022/06/23 02:37:57;;;;;;;22.80;11.32;;;;;;;;;;6277466;22;20077;-70
2022/06/23 02:40:22;;;;;;;;;;;;;;;;;;6277439;22;20016;-70
2022/06/23 02:42:54;;;;;;;21.67;10.27;;;;;;;;;;6277057;22;19906;-70
2022/06/23 02:45:19;;;;;;;22.50;9.90;;;;;;;;;;6277442;22;20217;-70
2022/06/23 02:47:47;;;;;;;20.95;10.30;;;;;;;;;;6277023;22;20059;-70
2022/06/23 02:50:35;;;;;;;36.17;11.80;;;;;;;;;;6276858;22;20000;-70
2022/06/23 02:53:15;;;;;;;26.85;11.88;;;;;;;;;;6274945;22;20015;-70
2022/06/23 02:55:40;;;;;;;27.52;11.50;;;;;;;;;;6276961;22;20027;-70
2022/06/23 02:58:24;;;;;;;25.58;11.73;;;;;;;;;;6277286;22;20003;-70
2022/06/23 03:00:56;;;;;;;23.48;11.32;;;;;;;;;;6276742;22;20065;-70
2022/06/23 03:03:30;;;;;;;27.63;11.48;;;;;;;;;;6276906;22;20007;-70
2022/06/23 03:05:59;;;;;;;30.35;11.35;;;;;;;;;;6276811;22;20075;-70
2022/06/23 03:08:27;;;;;;;23.40;11.45;;;;;;;;;;6276817;22;19995;-70
2022/06/23 03:10:57;;;;;;;22.33;10.77;;;;;;;;;;6276771;22;20004;-70
2022/06/23 03:13:45;;;;;;;19.25;10.55;;;;;;;;;;6276716;22;20036;-70
2022/06/23 03:16:15;;;;;;;20.05;10.70;;;;;;;;;;6259981;22;20004;-70
2022/06/23 03:18:46;;;;;;;19.60;10.43;;;;;;;;;;6276779;22;20035;-70
2022/06/23 03:21:23;;;;;;;25.88;11.32;;;;;;;;;;6276747;22;19999;-70
2022/06/23 03:24:02;;;;;;;26.83;10.65;;;;;;;;;;6276702;22;20011;-70
2022/06/23 03:27:06;;;;;;;20.27;9.93;;;;;;;;;;6276799;22;20008;-70
2022/06/23 03:29:44;;;;;;;27.87;9.90;;;;;;;;;;6152864;23;20005;-70
2022/06/23 03:32:21;;;;;;;23.10;10.35;;;;;;;;;;6152817;23;20100;-70
2022/06/23 03:34:47;;;;;;;21.48;9.90;;;;;;;;;;6230253;22;20043;-70
2022/06/23 03:37:15;;;;;;;22.98;11.07;;;;;;;;;;6276257;22;20000;-70
2022/06/23 03:42:44;;;;;;;17.10;9.77;;;;;;;;;;6278482;22;20046;-70
2022/06/23 03:45:09;;;;;;;20.20;10.57;;;;;;;;;;6278677;22;20004;-70
2022/06/23 03:47:46;;;;;;;24.75;10.32;;;;;;;;;;6278924;22;20003;-70
2022/06/23 03:50:18;;;;;;;20.05;9.98;;;;;;;;;;6278608;22;20007;-70
2022/06/23 03:52:57;;;;;;;19.88;9.98;;;;;;;;;;6278398;22;20012;-70
2022/06/23 03:55:28;;;;;;;19.92;9.90;;;;;;;;;;6278681;22;20007;-70
2022/06/23 03:57:55;;;;;;;16.70;10.23;;;;;;;;;;6278460;22;20004;-70
2022/06/23 04:00:24;;;;;;;22.27;10.45;;;;;;;;;;6278776;22;20027;-69
2022/06/23 04:03:03;;;;;;;20.92;9.98;;;;;;;;;;6278102;22;20411;-70
2022/06/23 04:05:38;;;;;;;17.75;8.60;;;;;;;;;;6278723;22;20012;-70
2022/06/23 04:08:04;;;;;;;16.15;9.43;;;;;;;;;;6278199;22;20000;-70
2022/06/23 04:10:31;;;;;;;22.30;9.18;;;;;;;;;;6278495;22;20022;-69
2022/06/23 04:13:01;;;;;;;17.80;9.35;;;;;;;;;;6278769;22;20011;-70
2022/06/23 04:15:32;;;;;;;19.42;9.35;;;;;;;;;;6278301;22;19998;-70
2022/06/23 04:18:00;;;;;;;15.45;9.43;;;;;;;;;;6278474;22;20018;-70
2022/06/23 04:20:32;;;;;;;19.77;9.32;;;;;;;;;;6278504;22;20075;-70
2022/06/23 04:22:57;;;;;;;18.17;8.25;;;;;;;;;;6278393;22;20026;-70
2022/06/23 04:25:25;;;;;;;16.08;8.23;;;;;;;;;;6278315;22;20428;-70
2022/06/23 04:27:53;;;;;;;15.23;8.20;;;;;;;;;;6278137;22;20417;-70
2022/06/23 04:30:38;;;;;;;17.33;8.68;;;;;;;;;;6278225;22;20211;-70
2022/06/23 04:33:05;;;;;;;17.20;8.50;;;;;;;;;;6277160;22;20015;-70
2022/06/23 04:35:32;;;;;;;12.52;7.35;;;;;;;;;;6278383;22;20362;-70
2022/06/23 04:38:07;;;;;;;16.50;8.38;;;;;;;;;;6278365;22;20099;-69
2022/06/23 04:40:36;;;;;;;19.83;8.25;;;;;;;;;;6278027;22;20012;-70
2022/06/23 04:43:13;;;;;;;17.30;7.32;;;;;;;;;;6277917;22;20443;-70
2022/06/23 04:45:47;;;;;;;15.10;7.65;;;;;;;;;;6278139;22;20003;-70
2022/06/23 04:48:22;;;;;;;10.05;5.72;;;;;;;;;;6277998;22;20432;-70
2022/06/23 04:50:50;;;;;;;6.82;4.55;;;;;;;;;;6277930;22;20067;-70
2022/06/23 04:53:18;;;;;;;6.13;4.20;;;;;;;;;;6277619;22;20451;-70
2022/06/23 04:55:46;;;;;;;7.38;4.00;;;;;;;;;;6278101;22;20007;-70
2022/06/23 04:58:21;;;;;;;5.22;3.55;;;;;;;;;;6278226;22;19995;-70
2022/06/23 05:00:49;;;;;;;4.90;2.95;;;;;;;;;;6278088;22;20039;-70
2022/06/23 05:03:17;;;;;;;4.10;2.88;;;;;;;;;;6278062;22;20023;-70
2022/06/23 05:05:42;;;;;;;4.75;3.03;;;;;;;;;;6277780;22;20011;-70
2022/06/23 05:08:12;;;;;;;7.40;3.25;;;;;;;;;;6278254;22;19992;-70
2022/06/23 05:10:44;;;;;;;4.60;3.00;;;;;;;;;;6278008;22;20064;-70
2022/06/23 05:13:17;;;;;;;3.75;2.65;;;;;;;;;;6277680;22;20459;-70
2022/06/23 05:15:43;;;;;;;3.78;2.60;;;;;;;;;;6277596;22;20011;-70
2022/06/23 05:18:11;;;;;;;3.85;2.53;;;;;;;;;;6277910;22;20008;-70
2022/06/23 05:20:40;;;;;;;5.65;2.63;;;;;;;;;;6277837;22;20063;-70
2022/06/23 05:23:06;;;;;;;3.33;2.33;;;;;;;;;;6277900;22;20079;-70
2022/06/23 05:25:31;;;;;;;4.28;2.33;;;;;;;;;;6277898;22;20012;-71
2022/06/23 05:27:57;;;;;;;2.95;2.22;;;;;;;;;;6277789;22;19995;-71
2022/06/23 05:30:30;;;;;;;5.07;2.47;;;;;;;;;;6277948;22;20000;-71
2022/06/23 05:32:57;;;;;;;3.22;2.10;;;;;;;;;;6277673;22;20011;-71
2022/06/23 05:35:37;;;;;;;3.53;2.00;;;;;;;;;;6277775;22;20004;-70
2022/06/23 05:38:05;;;;;;;4.05;2.25;;;;;;;;;;6277814;22;20007;-71
2022/06/23 05:40:35;;;;;;;4.07;2.20;;;;;;;;;;6276981;22;20003;-71
2022/06/23 05:43:02;;;;;;;3.13;2.00;;;;;;;;;;6277819;22;20011;-71
2022/06/23 05:45:31;;;;;;;4.28;2.10;;;;;;;;;;6277370;22;20000;-71
2022/06/23 05:47:57;;;;;;;2.85;1.90;;;;;;;;;;6277761;22;20301;-72
2022/06/23 05:50:26;;;;;;;2.75;1.80;;;;;;;;;;6277510;22;20007;-71
2022/06/23 05:52:51;;;;;;;3.88;2.00;;;;;;;;;;6277470;22;20004;-71
2022/06/23 05:55:25;;;;;;;3.80;2.10;;;;;;;;;;6277548;22;19999;-71
2022/06/23 05:57:54;;;;;;;3.58;1.92;;;;;;;;;;6277151;22;20014;-71
2022/06/23 06:00:27;;;;;;;3.80;1.88;;;;;;;;;;6277456;22;20061;-71
2022/06/23 06:02:55;;;;;;;2.88;1.88;;;;;;;;;;6277411;22;20000;-72
2022/06/23 06:05:25;;;;;;;3.60;2.20;;;;;;;;;;6277031;22;20000;-71
2022/06/23 06:07:51;;;;;;;3.00;1.80;;;;;;;;;;6277557;22;19999;-72
2022/06/23 06:10:18;;;;;;;4.05;2.10;;;;;;;;;;6276927;22;20083;-72
2022/06/23 06:12:44;;;;;;;4.38;1.92;;;;;;;;;;6276907;22;20081;-72
2022/06/23 06:15:15;;;;;;;4.30;1.80;;;;;;;;;;6277128;22;20078;-72
2022/06/23 06:17:41;;;;;;;4.25;1.98;;;;;;;;;;6277038;22;19992;-72
2022/06/23 06:20:08;;;;;;;3.03;1.98;;;;;;;;;;6277087;22;20078;-72
2022/06/23 06:22:51;;;;;;;3.13;1.75;;;;;;;;;;6276956;22;20060;-72
2022/06/23 06:25:45;;;;;;;2.78;1.70;;;;;;;;;;6276750;22;20015;-72
2022/06/23 06:28:14;;;;;;;4.20;2.05;;;;;;;;;;6250405;22;20008;-72
2022/06/23 06:30:41;;;;;;;3.95;1.90;;;;;;;;;;6277395;22;20355;-72
2022/06/23 06:33:09;;;;;;;5.30;1.70;;;;;;;;;;6277015;22;20015;-72
2022/06/23 06:35:41;;;;;;;4.00;1.42;;;;;;;;;;6277163;22;20000;-72
2022/06/23 06:38:08;;;;;;;3.15;1.77;;;;;;;;;;6277477;22;20053;-72
2022/06/23 06:40:34;;;;;;;2.67;1.70;;;;;;;;;;6276572;22;20020;-72
2022/06/23 06:43:01;;;;;;;3.45;1.60;;;;;;;;;;6276760;22;20000;-73
2022/06/23 06:45:29;;;;;;;2.65;1.45;;;;;;;;;;6277194;22;20297;-70
2022/06/23 06:47:56;;;;;;;2.78;1.63;;;;;;;;;;6276982;22;20083;-70
2022/06/23 06:50:28;;;;;;;2.55;1.40;;;;;;;;;;6276701;22;20470;-70
2022/06/23 06:52:55;;;;;;;4.32;1.55;;;;;;;;;;6276870;22;20023;-70
2022/06/23 06:55:25;;;;;;;4.50;1.70;;;;;;;;;;6277060;22;20004;-70
2022/06/23 06:57:57;;;;;;;3.47;1.70;;;;;;;;;;6276914;22;20122;-72
2022/06/23 07:00:27;;;;;;;2.53;1.50;;;;;;;;;;6276748;22;20023;-72
2022/06/23 07:02:57;;;;;;;2.92;1.55;;;;;;;;;;6276418;22;20309;-72
2022/06/23 07:05:27;;;;;;;2.17;1.40;;;;;;;;;;6276755;22;20010;-73
2022/06/23 07:08:01;;;;;;;6.07;1.77;;;;;;;;;;6277060;22;20081;-71
2022/06/23 07:10:31;;;;;;;2.95;1.80;;;;;;;;;;6276277;22;20431;-72
2022/06/23 07:13:00;;;;;;;3.63;1.95;;;;;;;;;;6276652;22;20120;-72
2022/06/23 07:15:29;;;;;;;2.75;1.40;;;;;;;;;;6276882;22;20000;-72
2022/06/23 07:18:02;;;;;;;4.90;1.50;;;;;;;;;;6276857;22;19996;-70
2022/06/23 07:20:47;;;;;;;4.60;1.60;;;;;;;;;;6266368;22;20888;-71
2022/06/23 07:23:25;;;;;;;3.85;1.80;;;;;;;;;;6275212;22;20022;-71
2022/06/23 07:25:52;;;;;;;2.58;1.45;;;;;;;;;;6276329;22;20420;-71
2022/06/23 07:28:47;;;;;;;3.47;1.55;;;;;;;;;;6274085;22;20320;-71
2022/06/23 07:31:33;;;;;;;3.72;1.58;;;;;;;;;;6249009;22;20014;-71
2022/06/23 07:34:04;;;;;;;2.22;1.30;;;;;;;;;;6275102;22;20336;-71
2022/06/23 07:36:42;;;;;;;2.63;1.63;;;;;;;;;;6275794;22;20004;-71
2022/06/23 07:39:18;;;;;;;2.63;1.70;;;;;;;;;;6275462;22;20004;-71
2022/06/23 07:41:47;;;;;;;3.25;1.60;;;;;;;;;;6275689;22;20320;-71
2022/06/23 07:44:28;;;;;;;4.70;1.85;;;;;;;;;;6276753;22;20026;-71
2022/06/23 07:46:54;;;;;;;4.43;1.67;;;;;;;;;;6276498;22;20070;-71
2022/06/23 07:49:19;;;;;;;3.38;2.10;;;;;;;;;;6276239;22;20404;-71
2022/06/23 07:51:44;;;;;;;3.38;1.70;;;;;;;;;;6276340;22;20000;-71
2022/06/23 07:54:14;;;;;;;3.92;2.00;;;;;;;;;;6275908;22;20003;-72
2022/06/23 07:56:39;;;;;;;3.88;2.10;;;;;;;;;;6274385;22;20296;-72
2022/06/23 07:59:07;;;;;;;3.90;2.10;;;;;;;;;;6275216;22;20055;-71
2022/06/23 08:01:38;;;;;;;3.67;2.25;;;;;;;;;;6276140;22;20224;-72
2022/06/23 08:04:03;;;;;;;4.05;2.15;;;;;;;;;;6276428;22;20045;-71
2022/06/23 08:06:30;;;;;;;3.73;2.10;;;;;;;;;;6275941;22;20003;-71
2022/06/23 08:08:56;;;;;;;4.15;2.08;;;;;;;;;;6276470;22;20073;-71
2022/06/23 08:14:22;;;;;;;4.18;1.73;;;;;;;;;;6275921;22;20018;-71
2022/06/23 08:16:50;;;;;;;4.85;2.00;;;;;;;;;;6276587;22;20003;-71
2022/06/23 08:19:16;;;;;;;5.43;2.22;;;;;;;;;;6276208;22;20015;-71
2022/06/23 08:21:45;;;;;;;7.13;2.05;;;;;;;;;;6276510;22;20304;-71
2022/06/23 08:24:10;;;;;;;4.85;2.20;;;;;;;;;;6276620;22;20091;-71
2022/06/23 08:26:36;;;;;;;5.65;3.10;;;;;;;;;;6277650;22;20084;-71
2022/06/23 08:29:03;;;;;;;6.97;2.70;;;;;;;;;;6278112;22;19995;-71
2022/06/23 08:31:29;;;;;;;5.75;3.20;;;;;;;;;;6278510;22;19999;-71
2022/06/23 08:33:55;;;;;;;5.70;2.60;;;;;;;;;;6277979;22;20082;-71
2022/06/23 08:36:22;;;;;;;7.10;2.22;;;;;;;;;;6278433;22;19999;-71
2022/06/23 08:38:51;;;;;;;4.07;2.33;;;;;;;;;;6278217;22;20322;-71
2022/06/23 08:41:22;;;;;;;4.45;2.25;;;;;;;;;;6278358;22;20004;-71
2022/06/23 08:43:52;;;;;;;5.97;2.45;;;;;;;;;;6278303;22;20019;-72
2022/06/23 08:46:31;;;;;;;4.15;2.22;;;;;;;;;;6278413;22;19999;-72
2022/06/23 08:49:16;;;;;;;4.07;1.90;;;;;;;;;;6278420;22;20000;-72
2022/06/23 08:51:56;;;;;;;3.53;2.15;;;;;;;;;;6277078;22;20002;-72
2022/06/23 08:54:33;;;;;;;5.13;2.40;;;;;;;;;;6278029;22;20036;-72
2022/06/23 08:57:17;;;;;;;5.28;2.33;;;;;;;;;;6277794;22;20383;-72
2022/06/23 08:59:46;;;;;;;4.93;2.25;;;;;;;;;;6277798;22;20008;-72
2022/06/23 09:02:18;;;;;;;5.00;2.00;;;;;;;;;;6277763;22;20034;-72
2022/06/23 09:04:54;;;;;;;4.22;2.03;;;;;;;;;;6278022;22;20007;-72
2022/06/23 09:07:33;;;;;;;4.93;1.92;;;;;;;;;;6278088;22;20018;-73
2022/06/23 09:10:21;;;;;;;4.40;1.70;;;;;;;;;;6278213;22;20038;-72
2022/06/23 09:12:50;;;;;;;7.75;1.90;;;;;;;;;;6261250;22;20082;-71
2022/06/23 09:15:34;;;;;;;5.13;1.83;;;;;;;;;;6278351;22;20004;-71
2022/06/23 09:18:18;;;;;;;5.10;2.10;;;;;;;;;;6277874;22;20002;-71
2022/06/23 09:21:12;;;;;;;6.13;1.85;;;;;;;;;;6277761;22;20010;-71
2022/06/23 09:23:57;;;;;;;3.80;1.75;;;;;;;;;;6168513;22;20009;-71
2022/06/23 09:26:38;;;;;;;5.88;1.75;;;;;;;;;;6277802;22;20003;-71
2022/06/23 09:29:10;;;;;;;4.30;1.90;;;;;;;;;;6277672;22;19996;-71
2022/06/23 09:31:43;;;;;;;3.83;1.85;;;;;;;;;;6273910;22;20015;-72
2022/06/23 09:34:24;;;;;;;6.53;1.90;;;;;;;;;;6271963;22;19995;-72
2022/06/23 09:37:16;;;;;;;3.27;1.70;;;;;;;;;;6273914;22;20004;-71
2022/06/23 09:39:41;;;;;;;3.95;1.60;;;;;;;;;;6216294;22;20829;-71
2022/06/23 09:42:10;;;;;;;3.97;1.50;;;;;;;;;;6270084;22;20038;-72
2022/06/23 09:44:57;;;;;;;4.03;1.40;;;;;;;;;;6269204;22;20004;-72
2022/06/23 09:47:46;;;;;;;5.07;1.48;;;;;;;;;;6273457;22;20004;-71
2022/06/23 09:50:20;;;;;;;3.08;1.20;;;;;;;;;;6272909;22;20082;-71
2022/06/23 09:53:04;;;;;;;3.55;1.48;;;;;;;;;;6272226;22;20031;-71
2022/06/23 09:55:35;;;;;;;7.18;1.30;;;;;;;;;;6270691;22;20095;-73
2022/06/23 09:58:12;;;;;;;3.38;1.40;;;;;;;;;;6271967;22;20061;-72
2022/06/23 10:00:56;;;;;;;4.70;1.27;;;;;;;;;;6272440;22;20011;-73
2022/06/23 10:03:40;;;;;;;2.40;1.20;;;;;;;;;;6271932;22;20082;-72
2022/06/23 10:06:05;;;;;;;2.70;1.23;;;;;;;;;;6245952;22;20007;-72
2022/06/23 10:08:30;;;;;;;2.97;1.53;;;;;;;;;;6272722;22;20434;-72
2022/06/23 10:11:02;;;;;;;2.27;1.00;;;;;;;;;;6271176;22;20732;-73
2022/06/23 10:13:36;;;;;;;2.33;1.00;;;;;;;;;;6271209;22;20266;-72
2022/06/23 10:16:01;;;;;;;1.52;0.90;;;;;;;;;;6272012;22;20177;-72
2022/06/23 10:18:38;;;;;;;3.60;1.10;;;;;;;;;;6273047;22;20460;-72
2022/06/23 10:21:03;;;;;;;3.03;1.20;;;;;;;;;;6273235;22;20229;-72
2022/06/23 10:23:48;;;;;;;2.23;1.00;;;;;;;;;;6268107;22;20011;-72
2022/06/23 10:26:16;;;;;;;4.75;1.40;;;;;;;;;;6274084;22;20221;-72
2022/06/23 10:28:47;;;;;;;3.33;1.30;;;;;;;;;;6273090;22;20004;-72
2022/06/23 10:31:19;;;;;;;4.50;1.80;;;;;;;;;;6265135;22;20000;-72
2022/06/23 10:34:02;;;;;;;3.42;1.40;;;;;;;;;;6272026;22;20000;-72
2022/06/23 10:36:51;;;;;;;2.35;1.38;;;;;;;;;;6241909;22;20328;-72
2022/06/23 10:39:25;;;;;;;2.75;1.45;;;;;;;;;;6272326;22;20023;-72
2022/06/23 10:41:59;;;;;;;2.63;1.45;;;;;;;;;;6272963;22;20007;-72
2022/06/23 10:44:27;;;;;;;3.05;1.42;;;;;;;;;;6272996;22;20015;-73
2022/06/23 10:47:05;;;;;;;5.13;1.80;;;;;;;;;;6272552;22;20010;-73
2022/06/23 10:49:40;;;;;;;3.15;1.70;;;;;;;;;;6270118;22;20003;-73
2022/06/23 10:52:11;;;;;;;3.13;1.45;;;;;;;;;;6272509;22;20057;-72
2022/06/23 10:54:37;;;;;;;5.95;1.83;;;;;;;;;;6270213;22;20436;-72
2022/06/23 10:57:20;;;;;;;4.60;1.70;;;;;;;;;;6263574;22;19999;-72
2022/06/23 10:59:45;;;;;;;;;;;;;;;;;;6271924;22;20027;-72
2022/06/23 11:02:29;;;;;;;3.63;1.50;;;;;;;;;;6271538;22;19954;-72
2022/06/23 11:04:57;;;;;;;6.47;1.67;;;;;;;;;;6270961;22;20169;-72
2022/06/23 11:07:25;;;;;;;3.70;2.13;;;;;;;;;;6271226;22;19999;-73
2022/06/23 11:09:55;;;;;;;5.07;1.83;;;;;;;;;;6271043;22;20004;-72
2022/06/23 11:12:32;;;;;;;4.45;1.77;;;;;;;;;;6271247;22;20015;-72
2022/06/23 11:15:10;;;;;;;6.88;2.10;;;;;;;;;;6271284;22;20027;-72
2022/06/23 11:17:57;;;;;;;4.35;2.47;;;;;;;;;;6269936;22;20008;-72
2022/06/23 11:20:29;;;;;;;6.10;2.60;;;;;;;;;;6271544;22;20030;-72
2022/06/23 11:23:14;;;;;;;5.30;2.65;;;;;;;;;;6270513;22;20020;-72
2022/06/23 11:26:02;;;;;;;4.22;1.90;;;;;;;;;;6250051;22;19999;-72
2022/06/23 11:28:41;;;;;;;3.75;1.50;;;;;;;;;;6251961;22;20004;-72
2022/06/23 11:31:06;;;;;;;4.03;1.70;;;;;;;;;;6270792;22;20899;-72
2022/06/23 11:33:39;;;;;;;2.67;1.50;;;;;;;;;;6269768;22;20007;-72
2022/06/23 11:36:05;;;;;;;;;;;;;;;;;;6269239;22;20053;-72
2022/06/23 11:38:50;;;;;;;3.05;1.45;;;;;;;;;;6270806;22;20227;-72
2022/06/23 11:41:18;;;;;;;2.50;1.30;;;;;;;;;;6271011;22;20000;-72
2022/06/23 11:43:55;;;;;;;6.30;1.25;;;;;;;;;;6270847;22;20039;-72
2022/06/23 11:46:34;;;;;;;2.78;1.13;;;;;;;;;;6271688;22;20008;-72
2022/06/23 11:49:21;;;;;;;2.20;1.00;;;;;;;;;;6269033;22;19992;-72
2022/06/23 11:52:05;;;;;;;2.75;1.10;;;;;;;;;;6270814;22;20004;-72
2022/06/23 11:54:35;;;;;;;4.43;1.15;;;;;;;;;;6270678;22;19988;-72
2022/06/23 11:57:09;;;;;;;2.80;1.10;;;;;;;;;;6270993;22;20435;-72
2022/06/23 11:59:37;;;;;;;2.60;1.02;;;;;;;;;;6271736;22;20042;-72
2022/06/23 12:02:02;;;;;;;1.92;0.90;;;;;;;;;;6272550;22;20061;-72
2022/06/23 12:04:28;;;;;;;2.95;1.20;;;;;;;;;;6273392;22;20094;-72
2022/06/23 12:06:59;;;;;;;3.70;1.23;;;;;;;;;;6273148;22;19996;-72
2022/06/23 12:09:33;;;;;;;4.15;1.00;;;;;;;;;;6271094;22;20012;-72
2022/06/23 12:12:01;;;;;;;3.13;1.08;;;;;;;;;;6274416;22;19996;-72
2022/06/23 12:14:27;;;;;;;3.53;1.00;;;;;;;;;;6273299;22;20014;-72
2022/06/23 12:16:56;;;;;;;3.53;1.02;;;;;;;;;;6272909;22;20000;-72
2022/06/23 12:19:24;;;;;;;2.30;1.10;;;;;;;;;;6274225;22;20071;-72
2022/06/23 12:22:27;;;;;;;3.28;1.00;;;;;;;;;;6273392;22;20452;-72
2022/06/23 12:25:17;;;;;;;1.83;1.00;;;;;;;;;;6144719;23;20485;-72
2022/06/23 12:27:48;;;;;;;4.00;0.90;;;;;;;;;;6149955;23;20010;-72
2022/06/23 12:30:15;;;;;;;1.83;0.90;;;;;;;;;;6231868;22;19999;-72
2022/06/23 12:32:43;;;;;;;2.35;1.00;;;;;;;;;;6273497;22;20003;-72
2022/06/23 12:35:08;;;;;;;2.45;0.90;;;;;;;;;;6273208;22;19999;-72
2022/06/23 12:37:38;;;;;;;3.77;0.90;;;;;;;;;;6273175;22;20002;-72
2022/06/23 12:40:04;;;;;;;3.17;1.00;;;;;;;;;;6273377;22;20255;-72
2022/06/23 12:42:34;;;;;;;1.75;0.82;;;;;;;;;;6269227;22;20082;-72
2022/06/23 12:45:15;;;;;;;2.22;0.80;;;;;;;;;;6272833;22;20030;-72
2022/06/23 12:47:52;;;;;;;1.40;0.80;;;;;;;;;;6267664;22;20079;-72
2022/06/23 12:50:17;;;;;;;1.77;0.90;;;;;;;;;;6273026;22;19995;-72
2022/06/23 12:52:42;;;;;;;1.50;0.80;;;;;;;;;;6272963;22;20293;-72
2022/06/23 12:55:13;;;;;;;1.73;0.80;;;;;;;;;;6273458;22;20363;-73
2022/06/23 12:57:41;;;;;;;2.40;1.00;;;;;;;;;;6272823;22;19998;-72
2022/06/23 13:00:21;;;;;;;2.70;1.10;;;;;;;;;;6273197;22;20019;-73
2022/06/23 13:02:53;;;;;;;1.92;1.02;;;;;;;;;;6272962;22;20145;-72
2022/06/23 13:05:37;;;;;;;1.60;0.90;;;;;;;;;;6272671;22;20063;-72
2022/06/23 13:08:09;;;;;;;3.30;1.10;;;;;;;;;;6273635;22;20071;-72
2022/06/23 13:10:45;;;;;;;3.25;0.80;;;;;;;;;;6273724;22;20007;-75
2022/06/23 13:13:12;;;;;;;2.58;1.10;;;;;;;;;;6270438;22;19999;-72
2022/06/23 13:15:44;;;;;;;4.13;1.30;;;;;;;;;;6273612;22;20008;-73
2022/06/23 13:18:15;;;;;;;8.10;1.40;;;;;;;;;;6273361;22;20095;-72
2022/06/23 13:20:44;;;;;;;2.80;1.23;;;;;;;;;;6272831;22;20485;-72
2022/06/23 13:23:11;;;;;;;3.15;1.25;;;;;;;;;;6263596;22;20011;-72
2022/06/23 13:25:41;;;;;;;7.50;1.52;;;;;;;;;;6272655;22;19996;-73
2022/06/23 13:28:06;;;;;;;3.15;1.75;;;;;;;;;;6269951;22;20432;-72
2022/06/23 13:30:44;;;;;;;6.63;1.30;;;;;;;;;;6270280;22;19992;-72
2022/06/23 13:33:22;;;;;;;2.95;1.50;;;;;;;;;;6272961;22;20008;-73
2022/06/23 13:35:53;;;;;;;3.53;1.27;;;;;;;;;;6272214;22;20039;-72
2022/06/23 13:38:40;;;;;;;4.13;1.65;;;;;;;;;;6271784;22;20011;-72
2022/06/23 13:41:17;;;;;;;3.17;1.48;;;;;;;;;;6271857;22;20011;-72
2022/06/23 13:43:54;;;;;;;3.55;1.55;;;;;;;;;;6271530;22;20011;-72
2022/06/23 13:46:22;;;;;;;3.05;1.60;;;;;;;;;;6273021;22;20056;-72
2022/06/23 13:48:51;;;;;;;5.05;1.70;;;;;;;;;;6272897;22;20007;-72
2022/06/23 13:51:22;;;;;;;5.03;2.00;;;;;;;;;;6272264;22;20000;-72
2022/06/23 13:53:47;;;;;;;6.82;2.20;;;;;;;;;;6271383;22;19998;-72
2022/06/23 13:56:22;;;;;;;4.32;1.92;;;;;;;;;;6272361;22;19996;-72
2022/06/23 13:58:55;;;;;;;4.35;1.88;;;;;;;;;;6272001;22;20272;-72
2022/06/23 14:01:26;;;;;;;6.85;1.95;;;;;;;;;;6272063;22;20012;-72
2022/06/23 14:04:01;;;;;;;5.07;2.38;;;;;;;;;;6271487;22;20015;-72
2022/06/23 14:06:29;;;;;;;7.15;2.70;;;;;;;;;;6272405;22;20375;-72
2022/06/23 14:09:00;;;;;;;5.20;2.05;;;;;;;;;;6272041;22;20038;-72
2022/06/23 14:11:33;;;;;;;7.15;1.90;;;;;;;;;;6271529;22;19996;-72
2022/06/23 14:14:08;;;;;;;6.07;2.40;;;;;;;;;;6272383;22;19999;-72
2022/06/23 14:16:37;;;;;;;7.22;2.63;;;;;;;;;;6272296;22;20008;-72
2022/06/23 14:19:21;;;;;;;6.38;2.20;;;;;;;;;;6272649;22;20027;-72
2022/06/23 14:21:55;;;;;;;5.25;2.65;;;;;;;;;;6271133;22;20059;-72
2022/06/23 14:24:31;;;;;;;4.72;2.30;;;;;;;;;;6269491;22;20043;-72
2022/06/23 14:27:14;;;;;;;4.45;2.00;;;;;;;;;;6271868;22;20000;-72
2022/06/23 14:29:43;;;;;;;6.18;2.50;;;;;;;;;;6272653;22;19999;-72
2022/06/23 14:32:09;;;;;;;7.40;2.47;;;;;;;;;;6272436;22;20014;-72
2022/06/23 14:34:47;;;;;;;5.10;2.10;;;;;;;;;;6271610;22;20080;-72
2022/06/23 14:37:12;;;;;;;5.43;2.40;;;;;;;;;;6272489;22;20008;-72
2022/06/23 14:39:46;;;;;;;7.95;2.40;;;;;;;;;;6269215;22;20014;-72
2022/06/23 14:42:20;;;;;;;5.78;2.70;;;;;;;;;;6271427;22;20000;-72
2022/06/23 14:45:10;;;;;;;7.60;2.20;;;;;;;;;;6272398;22;20000;-72
2022/06/23 14:47:55;;;;;;;4.75;2.50;;;;;;;;;;6270537;22;20008;-72
2022/06/23 14:50:29;;;;;;;5.97;2.47;;;;;;;;;;6251697;22;20000;-72
2022/06/23 14:53:21;;;;;;;6.65;2.42;;;;;;;;;;6272155;22;20004;-72
2022/06/23 14:55:49;;;;;;;5.10;2.50;;;;;;;;;;6224924;22;20432;-72
2022/06/23 14:58:23;;;;;;;6.47;2.03;;;;;;;;;;6271955;22;20446;-72
2022/06/23 15:00:57;;;;;;;5.40;2.50;;;;;;;;;;6272381;22;20316;-72
2022/06/23 15:03:36;;;;;;;4.97;2.67;;;;;;;;;;6272820;22;20019;-72
2022/06/23 15:06:07;;;;;;;5.55;2.33;;;;;;;;;;6272241;22;20014;-72
2022/06/23 15:08:35;;;;;;;8.02;2.45;;;;;;;;;;6272442;22;20014;-72
2022/06/23 15:11:07;;;;;;;3.97;2.20;;;;;;;;;;6272786;22;19996;-72
2022/06/23 15:13:42;;;;;;;5.63;2.63;;;;;;;;;;6273370;22;20073;-72